La Grande Rivière Airport
CYGL : rendu visible

Aérodrome :











RETROUVEZ-NOUS SUR...

 
LOGIN :

S'inscrire | Disclaimer

   EN    FR    IT 

 









Légende :    VFR   VFR Marginal   IFR   IFR Intensif   IFR Très Intensif
Visi : 
Plafond : 
>= 8 km
>= 3000ft
5 à 8 km
1000 à 3000 ft
1500m à 5 km
500 à 1000 ft
800 à 1500m
200 à 500 ft
< 800m
< 200 ft
Symboles :   Orages  Brouillard  Fortes neiges  Fortes précipitations  Vent > 20 kt






- Altitude de l'aérodrome : 639 ft
- Code IATA : YGL


CYGL - La Grande Rivière

DERNIER METAR :
  • 180800Z 19004KT 15SM IC OVC005 M25/M28 A3048 RMK SF8 SLP352

METARs EXPIRÉS :
  • 180700Z 17005KT 15SM IC OVC004 M25/M28 A3048 RMK SF8 SLP350
  • 180600Z 17003KT 15SM IC OVC005 M25/M28 A3049 RMK SF8 SLP357

TAF TAF CYGL
Valide du 18 à 06h jusqu'au 19 à 06h UTC


180538Z 1806/1906 VRB03KT P6SM OVC012
TEMPO 1806/1810 P6SM IC OVC007
FM181000 VRB03KT P6SM -SN OVC012
TEMPO 1810/1812 P6SM NSW OVC025
FM181200 12007KT P6SM SCT100
FM181800 10006KT P6SM BKN070 RMK NXT FCST BY 181200Z



MET'MAP, la Météo Aéronautique d'un coup d'oeil ! - Copyright ORBIFLY Décembre 2007 - Disclaimer

ORBIFLY MET'MAP TEAM :

Programmation & Développement : Alexandra Zaïnal
Sur une idée originale de : Baudouin d'Aumeries
Assistance à la programmation : Marc-Olivier Méhu
Soutien technique & logistique : Manuel Goepfert

Contact : metmap@orbifly.com




SOURCES & CREDITS :

   NOAA       Earth
Advisory